Time,TemperatureF,DewpointF,PressureIn,WindDirection,WindDirectionDegrees,WindSpeedMPH,WindSpeedGustMPH,Humidity,HourlyPrecipIn,Conditions,Clouds,dailyrainin,SoftwareType,DateUTC
2013-07-11 00:01:00,53.1,13.0,30.03,East,90,2.3,0.0,20,0.00,CLR,,0.00,WeatherDisplay:10.37,2013-07-11 07:01:00,
2013-07-11 00:06:00,52.9,12.8,30.03,NW,315,2.3,2.3,20,0.00,CLR,,0.00,WeatherDisplay:10.37,2013-07-11 07:06:00,
2013-07-11 00:09:00,52.9,11.7,30.03,North,0,2.3,3.1,19,0.00,CLR,,0.00,WeatherDisplay:10.37,2013-07-11 07:09:00,
2013-07-11 00:14:00,52.9,12.8,30.03,West,270,3.5,3.5,20,0.00,CLR,,0.00,WeatherDisplay:10.37,2013-07-11 07:14:00,
2013-07-11 00:19:00,52.9,12.8,30.03,South,180,1.2,0.0,20,0.00,CLR,,0.00,WeatherDisplay:10.37,2013-07-11 07:19:00,
2013-07-11 00:24:00,52.7,12.7,30.03,SE,135,2.3,0.0,20,0.00,CLR,,0.00,WeatherDisplay:10.37,2013-07-11 07:24:00,
2013-07-11 00:29:00,52.5,13.6,30.03,North,0,1.2,1.2,21,0.00,CLR,,0.00,WeatherDisplay:10.37,2013-07-11 07:29:00,
2013-07-11 00:34:00,52.5,15.7,30.03,West,270,4.6,4.6,23,0.00,CLR,,0.00,WeatherDisplay:10.37,2013-07-11 07:34:00,
2013-07-11 00:39:00,52.7,15.9,30.03,NW,315,3.5,3.5,23,0.00,CLR,,0.00,WeatherDisplay:10.37,2013-07-11 07:39:00,
2013-07-11 00:44:00,52.7,15.9,30.03,NE,45,1.2,0.0,23,0.00,CLR,,0.00,WeatherDisplay:10.37,2013-07-11 07:44:00,
2013-07-11 00:49:00,52.7,15.9,30.03,NE,45,3.5,0.0,23,0.00,CLR,,0.00,WeatherDisplay:10.37,2013-07-11 07:49:00,
2013-07-11 00:54:00,52.7,16.9,30.03,NW,315,3.5,3.5,24,0.00,CLR,,0.00,WeatherDisplay:10.37,2013-07-11 07:54:00,
2013-07-11 00:59:00,52.7,15.9,30.03,SW,225,1.2,0.0,23,0.00,CLR,,0.00,WeatherDisplay:10.37,2013-07-11 07:59:00,
2013-07-11 01:04:00,52.7,15.9,30.03,West,270,3.5,3.5,23,0.00,CLR,,0.00,WeatherDisplay:10.37,2013-07-11 08:04:00,
2013-07-11 01:09:00,52.9,15.0,30.03,NW,315,2.3,0.0,22,0.00,CLR,,0.00,WeatherDisplay:10.37,2013-07-11 08:09:00,
2013-07-11 01:14:00,52.9,15.0,30.02,NW,315,4.6,4.6,22,0.00,CLR,,0.00,WeatherDisplay:10.37,2013-07-11 08:14:00,
2013-07-11 01:19:00,52.9,13.9,30.02,North,0,3.5,3.5,21,0.00,CLR,,0.00,WeatherDisplay:10.37,2013-07-11 08:19:00,
2013-07-11 01:24:00,52.9,13.9,30.02,West,270,3.5,3.5,21,0.00,CLR,,0.00,WeatherDisplay:10.37,2013-07-11 08:24:00,
2013-07-11 01:29:00,52.9,13.9,30.02,NW,315,2.3,2.3,21,0.00,CLR,,0.00,WeatherDisplay:10.37,2013-07-11 08:29:00,
2013-07-11 01:34:00,52.7,11.5,30.02,NW,315,2.3,0.0,19,0.00,CLR,,0.00,WeatherDisplay:10.37,2013-07-11 08:34:00,
2013-07-11 01:39:00,52.7,11.5,30.02,West,270,4.6,4.6,19,0.00,CLR,,0.00,WeatherDisplay:10.37,2013-07-11 08:39:00,
2013-07-11 01:44:00,52.5,11.4,30.02,West,270,3.5,3.5,19,0.00,CLR,,0.00,WeatherDisplay:10.37,2013-07-11 08:44:00,
2013-07-11 01:49:00,52.5,11.4,30.02,NW,315,5.8,5.8,19,0.00,CLR,,0.00,WeatherDisplay:10.37,2013-07-11 08:49:00,
2013-07-11 01:54:00,52.3,11.2,30.02,West,270,3.5,3.5,19,0.00,CLR,,0.00,WeatherDisplay:10.37,2013-07-11 08:54:00,
2013-07-11 01:59:00,52.3,11.2,30.02,NW,315,5.8,5.8,19,0.00,CLR,,0.00,WeatherDisplay:10.37,2013-07-11 08:59:00,
2013-07-11 02:04:00,52.3,12.4,30.02,West,270,5.8,5.8,20,0.00,CLR,,0.00,WeatherDisplay:10.37,2013-07-11 09:04:00,
2013-07-11 02:09:00,52.3,11.2,30.01,West,270,3.5,3.5,19,0.00,CLR,,0.00,WeatherDisplay:10.37,2013-07-11 09:09:00,
2013-07-11 02:14:00,52.3,11.2,30.01,NW,315,2.3,0.0,19,0.00,CLR,,0.00,WeatherDisplay:10.37,2013-07-11 09:14:00,
2013-07-11 02:19:00,52.0,10.9,30.01,West,270,2.3,2.3,19,0.00,CLR,,0.00,WeatherDisplay:10.37,2013-07-11 09:19:00,
2013-07-11 02:24:00,52.0,12.1,30.01,West,270,1.2,0.0,20,0.00,CLR,,0.00,WeatherDisplay:10.37,2013-07-11 09:24:00,
2013-07-11 02:29:00,51.6,11.8,30.01,South,180,1.2,0.0,20,0.00,CLR,,0.00,WeatherDisplay:10.37,2013-07-11 09:29:00,
2013-07-11 02:34:00,51.3,11.5,30.01,South,180,2.3,0.0,20,0.00,CLR,,0.00,WeatherDisplay:10.37,2013-07-11 09:34:00,
2013-07-11 02:39:00,50.7,12.1,30.00,SE,135,1.2,0.0,21,0.00,CLR,,0.00,WeatherDisplay:10.37,2013-07-11 09:39:00,
2013-07-11 02:44:00,50.5,14.1,30.00,East,90,1.2,0.0,23,0.00,CLR,,0.00,WeatherDisplay:10.37,2013-07-11 09:44:00,
2013-07-11 02:49:00,50.5,16.9,30.00,East,90,2.3,0.0,26,0.00,CLR,,0.00,WeatherDisplay:10.37,2013-07-11 09:49:00,
2013-07-11 02:54:00,50.5,21.7,30.00,SE,135,1.2,0.0,32,0.00,CLR,,0.00,WeatherDisplay:10.37,2013-07-11 09:54:00,
2013-07-11 02:59:00,50.2,20.7,30.00,South,180,1.2,0.0,31,0.00,CLR,,0.00,WeatherDisplay:10.37,2013-07-11 09:59:00,
2013-07-11 03:04:00,50.0,19.7,30.00,South,180,0.0,0.0,30,0.00,CLR,,0.00,WeatherDisplay:10.37,2013-07-11 10:04:00,
2013-07-11 03:09:00,49.6,19.4,30.01,West,270,0.0,0.0,30,0.00,CLR,,0.00,WeatherDisplay:10.37,2013-07-11 10:09:00,
2013-07-11 03:14:00,49.1,19.7,30.01,West,270,0.0,0.0,31,0.00,CLR,,0.00,WeatherDisplay:10.37,2013-07-11 10:14:00,
2013-07-11 03:19:00,48.9,19.6,30.01,West,270,0.0,0.0,31,0.00,CLR,,0.00,WeatherDisplay:10.37,2013-07-11 10:19:00,
2013-07-11 03:24:00,48.7,19.4,30.01,West,270,1.2,0.0,31,0.00,CLR,,0.00,WeatherDisplay:10.37,2013-07-11 10:24:00,
2013-07-11 03:29:00,48.6,20.0,30.01,SW,225,1.2,0.0,32,0.00,CLR,,0.00,WeatherDisplay:10.37,2013-07-11 10:29:00,
2013-07-11 03:34:00,48.2,21.8,30.01,SW,225,2.3,0.0,35,0.00,CLR,,0.00,WeatherDisplay:10.37,2013-07-11 10:34:00,
2013-07-11 03:39:00,48.0,23.0,30.01,South,180,1.2,0.0,37,0.00,CLR,,0.00,WeatherDisplay:10.37,2013-07-11 10:39:00,
2013-07-11 03:44:00,47.8,22.8,30.00,SW,225,1.2,0.0,37,0.00,CLR,,0.00,WeatherDisplay:10.37,2013-07-11 10:44:00,
2013-07-11 03:49:00,47.7,23.3,30.00,SW,225,0.0,0.0,38,0.00,CLR,,0.00,WeatherDisplay:10.37,2013-07-11 10:49:00,
2013-07-11 03:54:00,47.5,23.7,30.00,SW,225,0.0,0.0,39,0.00,CLR,,0.00,WeatherDisplay:10.37,2013-07-11 10:54:00,
2013-07-11 03:59:00,47.3,23.6,30.01,SW,225,1.2,0.0,39,0.00,CLR,,0.00,WeatherDisplay:10.37,2013-07-11 10:59:00,
2013-07-11 04:04:00,47.1,23.4,30.00,West,270,1.2,0.0,39,0.00,CLR,,0.00,WeatherDisplay:10.37,2013-07-11 11:04:00,
2013-07-11 04:09:00,46.9,23.8,30.01,West,270,0.0,0.0,40,0.00,CLR,,0.00,WeatherDisplay:10.37,2013-07-11 11:09:00,
2013-07-11 04:14:00,46.8,24.3,30.00,West,270,1.2,0.0,41,0.00,CLR,,0.00,WeatherDisplay:10.37,2013-07-11 11:14:00,
2013-07-11 04:19:00,46.8,24.9,30.01,West,270,0.0,0.0,42,0.00,CLR,,0.00,WeatherDisplay:10.37,2013-07-11 11:19:00,
2013-07-11 04:24:00,46.8,24.3,30.01,West,270,0.0,0.0,41,0.00,CLR,,0.00,WeatherDisplay:10.37,2013-07-11 11:24:00,
2013-07-11 04:29:00,46.6,24.7,30.01,West,270,0.0,0.0,42,0.00,CLR,,0.00,WeatherDisplay:10.37,2013-07-11 11:29:00,
2013-07-11 04:34:00,46.6,24.7,30.01,West,270,0.0,0.0,42,0.00,CLR,,0.00,WeatherDisplay:10.37,2013-07-11 11:34:00,
2013-07-11 04:39:00,46.4,25.1,30.01,South,180,0.0,0.0,43,0.00,CLR,,0.00,WeatherDisplay:10.37,2013-07-11 11:39:00,
2013-07-11 04:44:00,46.2,24.9,30.02,South,180,0.0,0.0,43,0.00,CLR,,0.00,WeatherDisplay:10.37,2013-07-11 11:44:00,
2013-07-11 04:49:00,46.2,24.9,30.01,South,180,0.0,0.0,43,0.00,CLR,,0.00,WeatherDisplay:10.37,2013-07-11 11:49:00,
2013-07-11 04:54:00,46.0,24.8,30.02,SW,225,0.0,0.0,43,0.00,CLR,,0.00,WeatherDisplay:10.37,2013-07-11 11:54:00,
2013-07-11 04:59:00,45.9,25.2,30.02,SW,225,0.0,0.0,44,0.00,CLR,,0.00,WeatherDisplay:10.37,2013-07-11 11:59:00,
2013-07-11 05:04:00,45.5,24.8,30.02,SW,225,0.0,0.0,44,0.00,CLR,,0.00,WeatherDisplay:10.37,2013-07-11 12:04:00,
2013-07-11 05:09:00,45.5,24.8,30.02,SW,225,0.0,0.0,44,0.00,CLR,,0.00,WeatherDisplay:10.37,2013-07-11 12:09:00,
2013-07-11 05:14:00,45.3,25.2,30.02,SW,225,0.0,0.0,45,0.00,CLR,,0.00,WeatherDisplay:10.37,2013-07-11 12:14:00,
2013-07-11 05:19:00,45.1,25.0,30.01,SW,225,0.0,0.0,45,0.00,CLR,,0.00,WeatherDisplay:10.37,2013-07-11 12:19:00,
2013-07-11 05:24:00,45.0,24.9,30.02,South,180,0.0,0.0,45,0.00,CLR,,0.00,WeatherDisplay:10.37,2013-07-11 12:24:00,
2013-07-11 05:29:00,44.8,24.7,30.02,South,180,0.0,0.0,45,0.00,CLR,,0.00,WeatherDisplay:10.37,2013-07-11 12:29:00,
2013-07-11 05:34:00,44.8,24.7,30.02,South,180,0.0,0.0,45,0.00,CLR,,0.00,WeatherDisplay:10.37,2013-07-11 12:34:00,
2013-07-11 05:39:00,44.6,25.1,30.02,South,180,0.0,0.0,46,0.00,CLR,,0.00,WeatherDisplay:10.37,2013-07-11 12:39:00,
2013-07-11 05:44:00,44.6,25.1,30.02,South,180,0.0,0.0,46,0.00,CLR,,0.00,WeatherDisplay:10.37,2013-07-11 12:44:00,
2013-07-11 05:49:00,44.4,24.9,30.02,South,180,0.0,0.0,46,0.00,CLR,,0.00,WeatherDisplay:10.37,2013-07-11 12:49:00,
2013-07-11 05:54:00,44.6,25.6,30.02,South,180,0.0,0.0,47,0.00,CLR,,0.00,WeatherDisplay:10.37,2013-07-11 12:54:00,
2013-07-11 05:59:00,44.4,25.4,30.02,South,180,0.0,0.0,47,0.00,CLR,,0.00,WeatherDisplay:10.37,2013-07-11 12:59:00,
2013-07-11 06:04:00,44.4,25.4,30.02,West,270,0.0,0.0,47,0.00,CLR,,0.00,WeatherDisplay:10.37,2013-07-11 13:04:00,
2013-07-11 06:09:00,44.4,25.9,30.02,West,270,0.0,0.0,48,0.00,CLR,,0.00,WeatherDisplay:10.37,2013-07-11 13:09:00,
2013-07-11 06:14:00,44.4,25.9,30.02,West,270,0.0,0.0,48,0.00,CLR,,0.00,WeatherDisplay:10.37,2013-07-11 13:14:00,
2013-07-11 06:19:00,44.4,25.9,30.03,West,270,0.0,0.0,48,0.00,CLR,,0.00,WeatherDisplay:10.37,2013-07-11 13:19:00,
2013-07-11 06:24:00,44.4,25.9,30.03,West,270,0.0,0.0,48,0.00,CLR,,0.00,WeatherDisplay:10.37,2013-07-11 13:24:00,
2013-07-11 06:29:00,44.8,26.8,30.03,West,270,0.0,0.0,49,0.00,CLR,,0.00,WeatherDisplay:10.37,2013-07-11 13:29:00,
2013-07-11 06:34:00,44.8,26.8,30.03,West,270,0.0,0.0,49,0.00,CLR,,0.00,WeatherDisplay:10.37,2013-07-11 13:34:00,
2013-07-11 06:39:00,46.8,29.6,30.03,West,270,0.0,0.0,51,0.00,CLR,,0.00,WeatherDisplay:10.37,2013-07-11 13:39:00,
2013-07-11 06:44:00,48.9,31.6,30.03,SW,225,0.0,0.0,51,0.00,CLR,,0.00,WeatherDisplay:10.37,2013-07-11 13:44:00,
2013-07-11 06:49:00,50.9,32.9,30.03,West,270,0.0,0.0,50,0.00,CLR,,0.00,WeatherDisplay:10.37,2013-07-11 13:49:00,
2013-07-11 06:54:00,52.3,30.5,30.03,SW,225,0.0,0.0,43,0.00,CLR,,0.00,WeatherDisplay:10.37,2013-07-11 13:54:00,
2013-07-11 07:00:00,53.8,22.2,30.03,SW,225,0.0,0.0,29,0.00,CLR,,0.00,WeatherDisplay:10.37,2013-07-11 14:00:00,
2013-07-11 07:05:00,55.0,12.2,30.03,SW,225,0.0,0.0,18,0.00,CLR,,0.00,WeatherDisplay:10.37,2013-07-11 14:05:00,
2013-07-11 07:10:00,56.5,0.4,30.03,South,180,0.0,0.0,10,0.00,CLR,,0.00,WeatherDisplay:10.37,2013-07-11 14:10:00,
2013-07-11 07:15:00,58.1,1.7,30.03,South,180,0.0,0.0,10,0.00,CLR,,0.00,WeatherDisplay:10.37,2013-07-11 14:15:00,
2013-07-11 07:20:00,60.1,3.2,30.03,South,180,0.0,0.0,10,0.00,CLR,,0.00,WeatherDisplay:10.37,2013-07-11 14:20:00,
2013-07-11 07:25:00,61.0,3.9,30.03,South,180,0.0,0.0,10,0.00,CLR,,0.00,WeatherDisplay:10.37,2013-07-11 14:25:00,
2013-07-11 07:30:00,62.1,4.8,30.03,South,180,0.0,0.0,10,0.00,CLR,,0.00,WeatherDisplay:10.37,2013-07-11 14:30:00,
2013-07-11 07:35:00,62.8,5.3,30.02,South,180,0.0,0.0,10,0.00,CLR,,0.00,WeatherDisplay:10.37,2013-07-11 14:35:00,
2013-07-11 07:40:00,63.3,5.7,30.03,South,180,0.0,0.0,10,0.00,CLR,,0.00,WeatherDisplay:10.37,2013-07-11 14:40:00,
2013-07-11 07:45:00,64.4,6.6,30.03,South,180,0.0,0.0,10,0.00,CLR,,0.00,WeatherDisplay:10.37,2013-07-11 14:45:00,
2013-07-11 07:50:00,64.9,7.0,30.03,SE,135,1.2,1.2,10,0.00,CLR,,0.00,WeatherDisplay:10.37,2013-07-11 14:50:00,
2013-07-11 07:55:00,66.2,7.9,30.03,South,180,1.2,0.0,10,0.00,CLR,,0.00,WeatherDisplay:10.37,2013-07-11 14:55:00,
2013-07-11 08:01:00,67.1,8.6,30.03,SE,135,1.2,0.0,10,0.00,CLR,,0.00,WeatherDisplay:10.37,2013-07-11 15:01:00,
2013-07-11 08:06:00,68.4,9.6,30.02,NE,45,1.2,0.0,10,0.00,CLR,,0.00,WeatherDisplay:10.37,2013-07-11 15:06:00,
2013-07-11 08:11:00,68.2,9.5,30.02,North,0,2.3,2.3,10,0.00,CLR,,0.00,WeatherDisplay:10.37,2013-07-11 15:11:00,
2013-07-11 08:16:00,68.4,9.6,30.02,NW,315,1.2,1.2,10,0.00,CLR,,0.00,WeatherDisplay:10.37,2013-07-11 15:16:00,
2013-07-11 08:21:00,68.9,10.0,30.02,North,0,3.5,3.5,10,0.00,CLR,,0.00,WeatherDisplay:10.37,2013-07-11 15:21:00,
2013-07-11 08:26:00,68.9,10.0,30.02,NE,45,2.3,2.3,10,0.00,CLR,,0.00,WeatherDisplay:10.37,2013-07-11 15:26:00,
2013-07-11 08:31:00,68.4,9.6,30.02,SW,225,4.6,4.6,10,0.00,CLR,,0.00,WeatherDisplay:10.37,2013-07-11 15:31:00,
2013-07-11 08:36:00,69.3,10.3,30.02,North,0,3.5,3.5,10,0.00,CLR,,0.00,WeatherDisplay:10.37,2013-07-11 15:36:00,
2013-07-11 08:41:00,69.4,10.4,30.02,SW,225,2.3,0.0,10,0.00,CLR,,0.00,WeatherDisplay:10.37,2013-07-11 15:41:00,
2013-07-11 08:46:00,69.8,10.7,30.02,NW,315,5.8,5.8,10,0.00,CLR,,0.00,WeatherDisplay:10.37,2013-07-11 15:46:00,
2013-07-11 08:51:00,69.1,10.1,30.02,North,0,4.6,4.6,10,0.00,CLR,,0.00,WeatherDisplay:10.37,2013-07-11 15:51:00,
2013-07-11 08:56:00,69.8,10.7,30.02,NE,45,3.5,3.5,10,0.00,CLR,,0.00,WeatherDisplay:10.37,2013-07-11 15:56:00,
2013-07-11 09:02:00,70.2,11.0,30.02,North,0,3.5,3.5,10,0.00,CLR,,0.00,WeatherDisplay:10.37,2013-07-11 16:02:00,
2013-07-11 09:07:00,70.5,11.2,30.02,North,0,3.5,0.0,10,0.00,CLR,,0.00,WeatherDisplay:10.37,2013-07-11 16:07:00,
2013-07-11 09:12:00,71.1,11.7,30.01,NE,45,3.5,3.5,10,0.00,CLR,,0.00,WeatherDisplay:10.37,2013-07-11 16:12:00,
2013-07-11 09:17:00,71.8,12.2,30.01,WNW,292,1.2,1.2,10,0.00,CLR,,0.00,WeatherDisplay:10.37,2013-07-11 16:17:00,
2013-07-11 09:22:00,72.9,13.0,30.01,NW,315,2.3,0.0,10,0.00,CLR,,0.00,WeatherDisplay:10.37,2013-07-11 16:22:00,
2013-07-11 09:27:00,72.9,13.0,30.01,North,0,3.5,3.5,10,0.00,CLR,,0.00,WeatherDisplay:10.37,2013-07-11 16:27:00,
2013-07-11 09:32:00,73.2,13.3,30.01,South,180,8.1,8.1,10,0.00,CLR,,0.00,WeatherDisplay:10.37,2013-07-11 16:32:00,
2013-07-11 09:38:00,73.4,13.5,30.01,East,90,2.3,2.3,10,0.00,CLR,,0.00,WeatherDisplay:10.37,2013-07-11 16:38:00,
2013-07-11 09:43:00,73.8,13.7,30.01,North,0,3.5,3.5,10,0.00,CLR,,0.00,WeatherDisplay:10.37,2013-07-11 16:43:00,
2013-07-11 09:48:00,74.1,14.0,30.01,NE,45,4.6,4.6,10,0.00,CLR,,0.00,WeatherDisplay:10.37,2013-07-11 16:48:00,
2013-07-11 09:53:00,73.0,13.2,30.01,North,0,5.8,5.8,10,0.00,CLR,,0.00,WeatherDisplay:10.37,2013-07-11 16:53:00,
2013-07-11 09:58:00,73.8,13.7,30.01,NW,315,3.5,3.5,10,0.00,CLR,,0.00,WeatherDisplay:10.37,2013-07-11 16:58:00,
2013-07-11 10:03:00,74.5,14.3,30.00,WNW,292,8.1,8.1,10,0.00,CLR,,0.00,WeatherDisplay:10.37,2013-07-11 17:03:00,
2013-07-11 10:08:00,74.5,14.3,30.01,North,0,6.9,6.9,10,0.00,CLR,,0.00,WeatherDisplay:10.37,2013-07-11 17:08:00,
2013-07-11 10:13:00,74.8,14.6,30.01,NE,45,3.5,3.5,10,0.00,CLR,,0.00,WeatherDisplay:10.37,2013-07-11 17:13:00,
2013-07-11 10:18:00,75.2,14.8,30.01,SE,135,3.5,3.5,10,0.00,CLR,,0.00,WeatherDisplay:10.37,2013-07-11 17:18:00,
2013-07-11 10:23:00,75.6,15.1,30.01,West,270,8.1,8.1,10,0.00,CLR,,0.00,WeatherDisplay:10.37,2013-07-11 17:23:00,
2013-07-11 10:31:00,75.9,15.4,30.01,NE,45,5.8,5.8,10,0.00,CLR,,0.00,WeatherDisplay:10.37,2013-07-11 17:31:00,
2013-07-11 10:36:00,76.3,15.7,30.01,SE,135,2.3,0.0,10,0.00,CLR,,0.00,WeatherDisplay:10.37,2013-07-11 17:36:00,
2013-07-11 10:41:00,76.8,16.1,30.01,West,270,5.8,5.8,10,0.00,CLR,,0.00,WeatherDisplay:10.37,2013-07-11 17:41:00,
2013-07-11 10:46:00,75.7,15.2,30.01,West,270,5.8,5.8,10,0.00,CLR,,0.00,WeatherDisplay:10.37,2013-07-11 17:46:00,
2013-07-11 10:51:00,75.0,14.7,30.00,NW,315,8.1,8.1,10,0.00,CLR,,0.00,WeatherDisplay:10.37,2013-07-11 17:51:00,
2013-07-11 10:56:00,74.8,14.6,30.01,NE,45,3.5,3.5,10,0.00,CLR,,0.00,WeatherDisplay:10.37,2013-07-11 17:56:00,
2013-07-11 11:01:00,75.4,15.0,30.01,West,270,4.6,4.6,10,0.00,CLR,,0.00,WeatherDisplay:10.37,2013-07-11 18:01:00,
2013-07-11 11:07:00,74.8,14.6,30.00,West,270,6.9,6.9,10,0.00,CLR,,0.00,WeatherDisplay:10.37,2013-07-11 18:07:00,
2013-07-11 11:12:00,74.3,14.1,30.00,NE,45,8.1,8.1,10,0.00,CLR,,0.00,WeatherDisplay:10.37,2013-07-11 18:12:00,
2013-07-11 11:17:00,74.3,14.1,30.00,NW,315,6.9,6.9,10,0.00,CLR,,0.00,WeatherDisplay:10.37,2013-07-11 18:17:00,
2013-07-11 11:22:00,74.5,14.3,30.00,West,270,10.4,10.4,10,0.00,CLR,,0.00,WeatherDisplay:10.37,2013-07-11 18:22:00,
2013-07-11 11:27:00,73.9,13.9,30.00,North,0,10.4,10.4,10,0.00,CLR,,0.00,WeatherDisplay:10.37,2013-07-11 18:27:00,
2013-07-11 11:32:00,74.1,14.0,30.00,NW,315,10.4,10.4,10,0.00,CLR,,0.00,WeatherDisplay:10.37,2013-07-11 18:32:00,
2013-07-11 11:37:00,73.9,13.9,30.00,NW,315,5.8,5.8,10,0.00,CLR,,0.00,WeatherDisplay:10.37,2013-07-11 18:37:00,
2013-07-11 11:42:00,73.8,13.7,30.00,NW,315,8.1,8.1,10,0.00,CLR,,0.00,WeatherDisplay:10.37,2013-07-11 18:42:00,
2013-07-11 11:47:00,73.9,13.9,30.00,North,0,15.0,15.0,10,0.00,CLR,,0.00,WeatherDisplay:10.37,2013-07-11 18:47:00,
2013-07-11 11:53:00,73.0,13.2,30.00,South,180,8.1,8.1,10,0.00,CLR,,0.00,WeatherDisplay:10.37,2013-07-11 18:53:00,
2013-07-11 11:58:00,72.7,12.9,30.00,NW,315,10.7,10.7,10,0.00,CLR,,0.00,WeatherDisplay:10.37,2013-07-11 18:58:00,
2013-07-11 12:03:00,72.7,12.9,30.00,NE,45,9.2,9.2,10,0.00,CLR,,0.00,WeatherDisplay:10.37,2013-07-11 19:03:00,
2013-07-11 12:08:00,73.6,13.6,30.00,NE,45,10.4,10.4,10,0.00,CLR,,0.00,WeatherDisplay:10.37,2013-07-11 19:08:00,
2013-07-11 12:13:00,73.8,13.7,30.00,West,270,5.8,5.8,10,0.00,CLR,,0.00,WeatherDisplay:10.37,2013-07-11 19:13:00,
2013-07-11 12:18:00,75.2,14.8,30.00,NE,45,9.2,9.2,10,0.00,CLR,,0.00,WeatherDisplay:10.37,2013-07-11 19:18:00,
2013-07-11 12:23:00,74.5,14.3,30.00,West,270,9.2,9.2,10,0.00,CLR,,0.00,WeatherDisplay:10.37,2013-07-11 19:23:00,
2013-07-11 12:28:00,74.3,14.1,30.00,ESE,112,8.1,8.1,10,0.00,CLR,,0.00,WeatherDisplay:10.37,2013-07-11 19:28:00,
2013-07-11 12:33:00,74.3,14.1,30.00,West,270,12.7,12.7,10,0.00,CLR,,0.00,WeatherDisplay:10.37,2013-07-11 19:33:00,
2013-07-11 12:38:00,73.8,13.7,30.00,West,270,9.2,9.2,10,0.00,CLR,,0.00,WeatherDisplay:10.37,2013-07-11 19:38:00,
2013-07-11 12:43:00,73.0,13.2,30.00,NE,45,13.8,13.8,10,0.00,CLR,,0.00,WeatherDisplay:10.37,2013-07-11 19:43:00,
2013-07-11 12:48:00,72.9,13.0,30.00,NW,315,12.7,12.7,10,0.00,CLR,,0.00,WeatherDisplay:10.37,2013-07-11 19:48:00,
2013-07-11 12:53:00,72.7,12.9,30.00,NW,315,8.1,8.1,10,0.00,CLR,,0.00,WeatherDisplay:10.37,2013-07-11 19:53:00,
2013-07-11 12:58:00,72.9,13.0,30.00,East,90,11.5,11.5,10,0.00,CLR,,0.00,WeatherDisplay:10.37,2013-07-11 19:58:00,
2013-07-11 13:03:00,73.2,13.3,30.00,North,0,6.9,6.9,10,0.00,CLR,,0.00,WeatherDisplay:10.37,2013-07-11 20:03:00,
2013-07-11 13:09:00,73.4,13.5,29.99,NW,315,6.9,6.9,10,0.00,CLR,,0.00,WeatherDisplay:10.37,2013-07-11 20:09:00,
2013-07-11 13:14:00,73.2,13.3,30.00,East,90,3.5,3.5,10,0.00,CLR,,0.00,WeatherDisplay:10.37,2013-07-11 20:14:00,
2013-07-11 13:19:00,72.9,13.0,29.99,South,180,9.2,9.2,10,0.00,CLR,,0.00,WeatherDisplay:10.37,2013-07-11 20:19:00,
2013-07-11 13:24:00,72.9,13.0,30.00,NE,45,9.2,9.2,10,0.00,CLR,,0.00,WeatherDisplay:10.37,2013-07-11 20:24:00,
2013-07-11 13:29:00,73.8,13.7,30.00,NE,45,8.1,8.1,10,0.00,CLR,,0.00,WeatherDisplay:10.37,2013-07-11 20:29:00,
2013-07-11 13:34:00,74.5,14.3,30.00,NW,315,5.8,5.8,10,0.00,CLR,,0.00,WeatherDisplay:10.37,2013-07-11 20:34:00,
2013-07-11 13:40:00,74.8,14.6,29.99,NE,45,10.4,10.4,10,0.00,CLR,,0.00,WeatherDisplay:10.37,2013-07-11 20:40:00,
2013-07-11 13:45:00,73.9,13.9,29.99,NW,315,10.4,10.4,10,0.00,CLR,,0.00,WeatherDisplay:10.37,2013-07-11 20:45:00,
2013-07-11 13:50:00,73.9,13.9,29.99,North,0,6.9,6.9,10,0.00,CLR,,0.00,WeatherDisplay:10.37,2013-07-11 20:50:00,
2013-07-11 13:55:00,73.0,13.2,29.99,NE,45,11.5,11.5,10,0.00,CLR,,0.00,WeatherDisplay:10.37,2013-07-11 20:55:00,
2013-07-11 14:00:00,73.0,13.2,29.99,North,0,12.7,12.7,10,0.00,CLR,,0.00,WeatherDisplay:10.37,2013-07-11 21:00:00,
2013-07-11 14:06:00,73.0,13.2,29.99,NW,315,15.0,15.0,10,0.00,CLR,,0.00,WeatherDisplay:10.37,2013-07-11 21:06:00,
2013-07-11 14:11:00,73.2,13.3,29.99,North,0,9.2,9.2,10,0.00,CLR,,0.00,WeatherDisplay:10.37,2013-07-11 21:11:00,
2013-07-11 14:16:00,73.8,13.7,29.99,East,90,5.8,5.8,10,0.00,CLR,,0.00,WeatherDisplay:10.37,2013-07-11 21:16:00,
2013-07-11 14:22:00,73.9,13.9,29.99,NW,315,12.7,12.7,10,0.00,CLR,,0.00,WeatherDisplay:10.37,2013-07-11 21:22:00,
2013-07-11 14:27:00,72.9,13.0,29.99,East,90,15.0,15.0,10,0.00,CLR,,0.00,WeatherDisplay:10.37,2013-07-11 21:27:00,
2013-07-11 14:32:00,72.7,12.9,29.99,NE,45,10.4,10.4,10,0.00,CLR,,0.00,WeatherDisplay:10.37,2013-07-11 21:32:00,
2013-07-11 14:37:00,72.9,13.0,29.99,South,180,10.4,10.4,10,0.00,CLR,,0.00,WeatherDisplay:10.37,2013-07-11 21:37:00,
2013-07-11 14:42:00,72.9,13.0,29.99,NW,315,19.6,19.6,10,0.00,CLR,,0.00,WeatherDisplay:10.37,2013-07-11 21:42:00,
2013-07-11 14:48:00,73.0,13.2,29.99,SE,135,5.8,5.8,10,0.00,CLR,,0.00,WeatherDisplay:10.37,2013-07-11 21:48:00,
2013-07-11 14:53:00,73.0,13.2,29.99,North,0,15.0,15.0,10,0.00,CLR,,0.00,WeatherDisplay:10.37,2013-07-11 21:53:00,
2013-07-11 14:58:00,73.8,13.7,29.99,South,180,6.0,6.0,10,0.00,CLR,,0.00,WeatherDisplay:10.37,2013-07-11 21:58:00,
2013-07-11 15:03:00,74.1,14.0,29.99,NW,315,11.5,11.5,10,0.00,CLR,,0.00,WeatherDisplay:10.37,2013-07-11 22:03:00,
2013-07-11 15:08:00,74.1,14.0,29.99,North,0,12.7,12.7,10,0.00,CLR,,0.00,WeatherDisplay:10.37,2013-07-11 22:08:00,
2013-07-11 15:13:00,72.9,13.0,29.98,North,0,13.8,13.8,10,0.00,CLR,,0.00,WeatherDisplay:10.37,2013-07-11 22:13:00,
2013-07-11 15:18:00,72.9,13.0,29.98,NW,315,16.1,16.1,10,0.00,CLR,,0.00,WeatherDisplay:10.37,2013-07-11 22:18:00,
2013-07-11 15:23:00,73.0,13.2,29.98,ENE,68,9.2,9.2,10,0.00,CLR,,0.00,WeatherDisplay:10.37,2013-07-11 22:23:00,
2013-07-11 15:28:00,73.4,13.5,29.98,NW,315,10.4,10.4,10,0.00,CLR,,0.00,WeatherDisplay:10.37,2013-07-11 22:28:00,
2013-07-11 15:34:00,73.9,13.9,29.98,NW,315,8.1,8.1,10,0.00,CLR,,0.00,WeatherDisplay:10.37,2013-07-11 22:34:00,
2013-07-11 15:39:00,74.7,14.4,29.98,East,90,12.7,12.7,10,0.00,CLR,,0.00,WeatherDisplay:10.37,2013-07-11 22:39:00,
2013-07-11 15:44:00,74.1,14.0,29.98,NW,315,13.8,13.8,10,0.00,CLR,,0.00,WeatherDisplay:10.37,2013-07-11 22:44:00,
2013-07-11 15:49:00,73.4,13.5,29.98,East,90,10.4,10.4,10,0.00,CLR,,0.00,WeatherDisplay:10.37,2013-07-11 22:49:00,
2013-07-11 15:55:00,73.4,13.5,29.98,WNW,292,8.1,8.1,10,0.00,CLR,,0.00,WeatherDisplay:10.37,2013-07-11 22:55:00,
2013-07-11 16:00:00,73.9,13.9,29.98,South,180,6.9,6.9,10,0.00,CLR,,0.00,WeatherDisplay:10.37,2013-07-11 23:00:00,
2013-07-11 16:05:00,73.8,13.7,29.98,North,0,12.7,12.7,10,0.00,CLR,,0.00,WeatherDisplay:10.37,2013-07-11 23:05:00,
2013-07-11 16:10:00,73.9,13.9,29.97,West,270,8.1,8.1,10,0.00,CLR,,0.00,WeatherDisplay:10.37,2013-07-11 23:10:00,
2013-07-11 16:15:00,73.9,13.9,29.98,NW,315,12.7,12.7,10,0.00,CLR,,0.00,WeatherDisplay:10.37,2013-07-11 23:15:00,
2013-07-11 16:20:00,73.9,13.9,29.98,NE,45,9.2,9.2,10,0.00,CLR,,0.00,WeatherDisplay:10.37,2013-07-11 23:20:00,
2013-07-11 16:25:00,73.8,13.7,29.97,NW,315,3.5,3.5,10,0.00,CLR,,0.00,WeatherDisplay:10.37,2013-07-11 23:25:00,
2013-07-11 16:31:00,72.9,13.0,29.97,North,0,5.8,5.8,10,0.00,CLR,,0.00,WeatherDisplay:10.37,2013-07-11 23:31:00,
2013-07-11 16:36:00,73.4,13.5,29.98,West,270,15.0,15.0,10,0.00,CLR,,0.00,WeatherDisplay:10.37,2013-07-11 23:36:00,
2013-07-11 16:41:00,73.6,13.6,29.97,West,270,5.8,5.8,10,0.00,CLR,,0.00,WeatherDisplay:10.37,2013-07-11 23:41:00,
2013-07-11 16:46:00,73.2,13.3,29.97,NE,45,10.4,10.4,10,0.00,CLR,,0.00,WeatherDisplay:10.37,2013-07-11 23:46:00,
2013-07-11 16:51:00,73.2,13.3,29.97,ESE,112,8.1,8.1,10,0.00,CLR,,0.00,WeatherDisplay:10.37,2013-07-11 23:51:00,
2013-07-11 16:56:00,73.4,13.5,29.97,East,90,5.8,5.8,10,0.00,CLR,,0.00,WeatherDisplay:10.37,2013-07-11 23:56:00,
2013-07-11 17:01:00,73.0,13.2,29.97,South,180,12.7,12.7,10,0.00,CLR,,0.00,WeatherDisplay:10.37,2013-07-12 00:01:00,
2013-07-11 17:06:00,72.9,13.0,29.97,North,0,17.3,17.3,10,0.00,CLR,,0.00,WeatherDisplay:10.37,2013-07-12 00:06:00,
2013-07-11 17:11:00,72.3,12.6,29.97,West,270,12.7,12.7,10,0.00,CLR,,0.00,WeatherDisplay:10.37,2013-07-12 00:11:00,
2013-07-11 17:16:00,72.5,12.8,29.97,West,270,10.4,10.4,10,0.00,CLR,,0.00,WeatherDisplay:10.37,2013-07-12 00:16:00,
2013-07-11 17:21:00,72.0,12.4,29.97,NE,45,15.0,15.0,10,0.00,CLR,,0.00,WeatherDisplay:10.37,2013-07-12 00:21:00,
2013-07-11 17:26:00,71.2,11.8,29.97,North,0,11.5,11.5,10,0.00,CLR,,0.00,WeatherDisplay:10.37,2013-07-12 00:26:00,
2013-07-11 17:35:00,71.2,71.2,29.98,North,0,6.9,6.9,100,0.00,CLR,,0.00,WeatherDisplay:10.37,2013-07-12 00:35:00,
2013-07-11 17:40:00,71.1,71.1,29.97,West,270,8.1,8.1,100,0.00,CLR,,0.00,WeatherDisplay:10.37,2013-07-12 00:40:00,
2013-07-11 17:45:00,71.1,71.1,29.98,East,90,11.5,11.5,100,0.00,CLR,,0.00,WeatherDisplay:10.37,2013-07-12 00:45:00,
2013-07-11 17:50:00,70.5,70.5,29.97,NW,315,19.6,19.6,100,0.00,CLR,,0.00,WeatherDisplay:10.37,2013-07-12 00:50:00,
2013-07-11 17:55:00,70.2,70.2,29.97,SW,225,11.5,11.5,100,0.00,CLR,,0.00,WeatherDisplay:10.37,2013-07-12 00:55:00,
2013-07-11 18:00:00,70.3,70.3,29.97,East,90,16.1,16.1,100,0.00,CLR,,0.00,WeatherDisplay:10.37,2013-07-12 01:00:00,
2013-07-11 18:05:00,70.5,70.5,29.97,NW,315,8.1,8.1,100,0.00,CLR,,0.00,WeatherDisplay:10.37,2013-07-12 01:05:00,
2013-07-11 18:11:00,70.2,70.2,29.97,NW,315,12.7,12.7,100,0.00,CLR,,0.00,WeatherDisplay:10.37,2013-07-12 01:11:00,
2013-07-11 18:16:00,70.5,70.5,29.97,West,270,9.2,9.2,100,0.00,CLR,,0.00,WeatherDisplay:10.37,2013-07-12 01:16:00,
2013-07-11 18:21:00,70.2,70.2,29.97,NE,45,13.8,13.8,100,0.00,CLR,,0.00,WeatherDisplay:10.37,2013-07-12 01:21:00,
2013-07-11 18:26:00,70.2,70.2,29.97,NW,315,6.9,6.9,100,0.00,CLR,,0.00,WeatherDisplay:10.37,2013-07-12 01:26:00,
2013-07-11 18:31:00,69.6,69.6,29.96,NE,45,19.6,19.6,100,0.00,CLR,,0.00,WeatherDisplay:10.37,2013-07-12 01:31:00,
2013-07-11 18:36:00,68.9,68.9,29.96,NW,315,19.6,19.6,100,0.00,CLR,,0.00,WeatherDisplay:10.37,2013-07-12 01:36:00,
2013-07-11 18:41:00,68.7,68.7,29.96,SW,225,9.2,9.2,100,0.00,CLR,,0.00,WeatherDisplay:10.37,2013-07-12 01:41:00,
2013-07-11 18:46:00,69.1,69.1,29.97,NE,45,3.5,3.5,100,0.00,CLR,,0.00,WeatherDisplay:10.37,2013-07-12 01:46:00,
2013-07-11 18:51:00,69.4,69.4,29.97,NW,315,9.2,9.2,100,0.00,CLR,,0.00,WeatherDisplay:10.37,2013-07-12 01:51:00,
2013-07-11 18:56:00,69.1,69.1,29.97,WNW,292,8.1,8.3,100,0.00,CLR,,0.00,WeatherDisplay:10.37,2013-07-12 01:56:00,
2013-07-11 19:01:00,68.2,68.2,29.97,West,270,10.4,10.4,100,0.00,CLR,,0.00,WeatherDisplay:10.37,2013-07-12 02:01:00,
2013-07-11 19:06:00,68.7,68.7,29.98,North,0,2.3,2.3,100,0.00,CLR,,0.00,WeatherDisplay:10.37,2013-07-12 02:06:00,
2013-07-11 19:11:00,68.5,68.5,29.97,South,180,3.5,3.5,100,0.00,CLR,,0.00,WeatherDisplay:10.37,2013-07-12 02:11:00,
2013-07-11 19:16:00,68.2,68.2,29.98,West,270,10.4,10.4,100,0.00,CLR,,0.00,WeatherDisplay:10.37,2013-07-12 02:16:00,
2013-07-11 19:21:00,67.6,67.6,29.98,NE,45,5.8,5.8,100,0.00,CLR,,0.00,WeatherDisplay:10.37,2013-07-12 02:21:00,
2013-07-11 19:26:00,67.5,67.5,29.97,North,0,5.8,5.8,100,0.00,CLR,,0.00,WeatherDisplay:10.37,2013-07-12 02:26:00,
2013-07-11 19:31:00,66.6,66.6,29.97,East,90,17.5,17.5,100,0.00,CLR,,0.00,WeatherDisplay:10.37,2013-07-12 02:31:00,
2013-07-11 19:36:00,65.8,65.8,29.98,NE,45,8.1,8.1,100,0.00,CLR,,0.00,WeatherDisplay:10.37,2013-07-12 02:36:00,
2013-07-11 19:41:00,65.7,65.7,29.98,North,0,5.8,5.8,100,0.00,CLR,,0.00,WeatherDisplay:10.37,2013-07-12 02:41:00,
2013-07-11 19:46:00,65.3,65.3,29.98,NE,45,11.5,11.5,100,0.00,CLR,,0.00,WeatherDisplay:10.37,2013-07-12 02:46:00,
2013-07-11 19:51:00,64.4,64.4,29.98,North,0,16.1,16.1,100,0.00,CLR,,0.00,WeatherDisplay:10.37,2013-07-12 02:51:00,
2013-07-11 21:02:00,56.8,56.8,29.98,NW,315,9.2,9.2,100,0.00,CLR,,0.00,WeatherDisplay:10.37,2013-07-12 04:02:00,
2013-07-11 21:03:00,56.8,56.8,29.98,NW,315,9.2,9.2,100,0.00,CLR,,0.00,WeatherDisplay:10.37,2013-07-12 04:03:00,
2013-07-11 21:05:00,56.8,56.8,29.99,West,270,4.6,4.6,100,0.00,CLR,,0.00,WeatherDisplay:10.37,2013-07-12 04:05:00,
2013-07-11 21:07:00,56.7,56.7,29.99,North,0,9.2,9.2,100,0.00,CLR,,0.00,WeatherDisplay:10.37,2013-07-12 04:07:00,
2013-07-11 21:12:00,56.5,56.5,29.98,East,90,3.5,0.0,100,0.00,CLR,,0.00,WeatherDisplay:10.37,2013-07-12 04:12:00,
2013-07-11 21:17:00,56.5,56.5,29.99,South,180,4.6,0.0,100,0.00,CLR,,0.00,WeatherDisplay:10.37,2013-07-12 04:17:00,
2013-07-11 21:22:00,56.3,56.3,29.99,West,270,5.8,5.8,100,0.00,CLR,,0.00,WeatherDisplay:10.37,2013-07-12 04:22:00,
2013-07-11 21:27:00,56.1,56.1,29.99,NW,315,3.5,3.5,100,0.00,CLR,,0.00,WeatherDisplay:10.37,2013-07-12 04:27:00,
2013-07-11 21:32:00,55.9,55.9,29.99,West,270,3.5,0.0,100,0.00,CLR,,0.00,WeatherDisplay:10.37,2013-07-12 04:32:00,
2013-07-11 21:37:00,55.8,55.8,29.99,SW,225,3.5,0.0,100,0.00,CLR,,0.00,WeatherDisplay:10.37,2013-07-12 04:37:00,
2013-07-11 21:42:00,55.8,55.8,29.99,SW,225,1.2,0.0,100,0.00,CLR,,0.00,WeatherDisplay:10.37,2013-07-12 04:42:00,
2013-07-11 21:47:00,55.6,3.7,29.99,NW,315,5.8,5.8,12,0.00,CLR,,0.00,WeatherDisplay:10.37,2013-07-12 04:47:00,
2013-07-11 21:52:00,55.6,5.4,29.99,West,270,5.8,5.8,13,0.00,CLR,,0.00,WeatherDisplay:10.37,2013-07-12 04:52:00,
2013-07-11 21:57:00,55.4,6.9,29.99,North,0,3.5,3.5,14,0.00,CLR,,0.00,WeatherDisplay:10.37,2013-07-12 04:57:00,
2013-07-11 22:02:00,55.4,8.4,29.99,NW,315,4.6,4.6,15,0.00,CLR,,0.00,WeatherDisplay:10.37,2013-07-12 05:02:00,
2013-07-11 22:07:00,55.2,11.1,29.99,NW,315,5.8,5.8,17,0.00,CLR,,0.00,WeatherDisplay:10.37,2013-07-12 05:07:00,
2013-07-11 22:12:00,55.2,12.4,29.99,West,270,5.8,5.8,18,0.00,CLR,,0.00,WeatherDisplay:10.37,2013-07-12 05:12:00,
2013-07-11 22:17:00,55.2,12.4,29.99,East,90,3.5,3.5,18,0.00,CLR,,0.00,WeatherDisplay:10.37,2013-07-12 05:17:00,
2013-07-11 22:22:00,55.0,14.6,29.99,West,270,5.8,5.8,20,0.00,CLR,,0.00,WeatherDisplay:10.37,2013-07-12 05:22:00,
2013-07-11 22:27:00,55.0,13.5,29.99,NE,45,8.1,8.1,19,0.00,CLR,,0.00,WeatherDisplay:10.37,2013-07-12 05:27:00,
2013-07-11 22:32:00,55.0,14.6,29.99,West,270,3.5,0.0,20,0.00,CLR,,0.00,WeatherDisplay:10.37,2013-07-12 05:32:00,
2013-07-11 22:37:00,55.0,15.8,29.99,South,180,3.5,0.0,21,0.00,CLR,,0.00,WeatherDisplay:10.37,2013-07-12 05:37:00,
2013-07-11 22:42:00,54.9,15.6,29.99,NE,45,1.2,0.0,21,0.00,CLR,,0.00,WeatherDisplay:10.37,2013-07-12 05:42:00,
2013-07-11 22:47:00,54.9,15.6,29.99,NE,45,10.4,10.4,21,0.00,CLR,,0.00,WeatherDisplay:10.37,2013-07-12 05:47:00,
2013-07-11 22:52:00,54.9,16.7,29.99,NW,315,4.6,4.6,22,0.00,CLR,,0.00,WeatherDisplay:10.37,2013-07-12 05:52:00,
2013-07-11 22:57:00,54.9,15.6,29.99,West,270,2.3,2.3,21,0.00,CLR,,0.00,WeatherDisplay:10.37,2013-07-12 05:57:00,
2013-07-11 23:02:00,54.7,15.5,29.99,North,0,1.2,0.0,21,0.00,CLR,,0.00,WeatherDisplay:10.37,2013-07-12 06:02:00,
2013-07-11 23:07:00,54.5,17.4,29.99,West,270,4.6,4.6,23,0.00,CLR,,0.00,WeatherDisplay:10.37,2013-07-12 06:07:00,
2013-07-11 23:12:00,54.3,17.3,29.99,NW,315,4.6,4.6,23,0.00,CLR,,0.00,WeatherDisplay:10.37,2013-07-12 06:12:00,
2013-07-11 23:17:00,54.1,17.1,29.99,NW,315,3.8,3.8,23,0.00,CLR,,0.00,WeatherDisplay:10.37,2013-07-12 06:17:00,
2013-07-11 23:22:00,54.0,17.9,29.99,NW,315,5.8,5.8,24,0.00,CLR,,0.00,WeatherDisplay:10.37,2013-07-12 06:22:00,
2013-07-11 23:27:00,54.0,18.9,29.99,East,90,2.3,2.3,25,0.00,CLR,,0.00,WeatherDisplay:10.37,2013-07-12 06:27:00,
2013-07-11 23:32:00,54.0,19.8,29.99,West,270,3.5,3.5,26,0.00,CLR,,0.00,WeatherDisplay:10.37,2013-07-12 06:32:00,
2013-07-11 23:37:00,53.8,19.7,30.00,NW,315,4.6,4.6,26,0.00,CLR,,0.00,WeatherDisplay:10.37,2013-07-12 06:37:00,
2013-07-11 23:42:00,53.6,19.5,30.00,SW,225,2.3,2.3,26,0.00,CLR,,0.00,WeatherDisplay:10.37,2013-07-12 06:42:00,
2013-07-11 23:47:00,53.6,19.5,29.99,West,270,3.5,0.0,26,0.00,CLR,,0.00,WeatherDisplay:10.37,2013-07-12 06:47:00,
2013-07-11 23:52:00,53.4,19.3,30.00,West,270,3.5,3.5,26,0.00,CLR,,0.00,WeatherDisplay:10.37,2013-07-12 06:52:00,
2013-07-11 23:57:00,53.2,20.1,29.99,NW,315,3.5,3.5,27,0.00,CLR,,0.00,WeatherDisplay:10.37,2013-07-12 06:57:00,